createdAt,value
2019-04-27T00:00:24.069Z,0.00
2019-04-27T00:01:24.054Z,0.00
2019-04-27T00:02:26.547Z,0.00
2019-04-27T00:03:24.066Z,0.00
2019-04-27T00:04:25.328Z,0.00
2019-04-27T00:05:26.690Z,0.00
2019-04-27T00:06:25.007Z,0.00
2019-04-27T00:07:24.191Z,0.00
2019-04-27T00:08:24.088Z,0.00
2019-04-27T00:09:23.971Z,0.00
2019-04-27T00:10:27.006Z,0.00
2019-04-27T00:11:23.957Z,0.00
2019-04-27T00:12:26.408Z,0.00
2019-04-27T00:13:23.944Z,0.00
2019-04-27T00:14:24.002Z,0.00
2019-04-27T00:15:24.721Z,0.00
2019-04-27T00:16:24.914Z,0.00
2019-04-27T00:17:41.164Z,0.00
2019-04-27T00:18:24.904Z,0.00
2019-04-27T00:19:27.331Z,0.00
2019-04-27T00:20:24.850Z,0.00
2019-04-27T00:21:23.854Z,0.00
2019-04-27T00:22:23.835Z,0.00
2019-04-27T00:23:23.832Z,0.00
2019-04-27T00:24:23.836Z,0.00
2019-04-27T00:25:23.823Z,0.00
2019-04-27T00:26:23.795Z,0.00
2019-04-27T00:27:23.783Z,0.00
2019-04-27T00:28:23.786Z,0.00
2019-04-27T00:29:25.826Z,0.00
2019-04-27T00:30:23.755Z,0.00
2019-04-27T00:31:23.740Z,0.00
2019-04-27T00:32:23.729Z,0.00
2019-04-27T00:33:23.896Z,0.00
2019-04-27T00:34:23.731Z,0.00
2019-04-27T00:35:23.707Z,0.00
2019-04-27T00:36:23.690Z,0.00
2019-04-27T00:37:23.789Z,0.00
2019-04-27T00:38:23.668Z,0.00
2019-04-27T00:39:23.650Z,0.00
2019-04-27T00:40:23.700Z,0.00
2019-04-27T00:41:24.265Z,0.00
2019-04-27T00:42:23.623Z,0.00
2019-04-27T00:43:23.614Z,0.00
2019-04-27T00:44:23.805Z,0.00
2019-04-27T00:45:23.629Z,0.00
2019-04-27T00:46:23.571Z,0.00
2019-04-27T00:47:23.880Z,0.00
2019-04-27T00:48:23.554Z,0.00
2019-04-27T00:49:23.886Z,0.00
2019-04-27T00:50:23.556Z,0.00
2019-04-27T00:51:23.540Z,0.00
2019-04-27T00:52:24.034Z,0.00
2019-04-27T00:53:23.587Z,0.00
2019-04-27T00:54:23.863Z,0.00
2019-04-27T00:55:23.502Z,0.00
2019-04-27T00:56:23.588Z,0.00
2019-04-27T00:57:24.511Z,0.00
2019-04-27T00:58:23.455Z,0.00
2019-04-27T00:59:23.819Z,0.00
2019-04-27T01:00:23.579Z,0.00
2019-04-27T01:01:23.434Z,0.00
2019-04-27T01:02:23.415Z,0.00
2019-04-27T01:03:23.383Z,0.00
2019-04-27T01:04:23.741Z,0.00
2019-04-27T01:05:23.394Z,0.00
2019-04-27T01:06:23.451Z,0.00
2019-04-27T01:07:25.027Z,0.00
2019-04-27T01:08:23.341Z,0.00
2019-04-27T01:09:23.722Z,0.00
2019-04-27T01:10:23.407Z,0.00
2019-04-27T01:11:24.893Z,0.00
2019-04-27T01:12:23.710Z,0.00
2019-04-27T01:13:23.288Z,0.00
2019-04-27T01:14:23.263Z,0.00
2019-04-27T01:15:23.820Z,0.00
2019-04-27T01:16:24.239Z,0.00
2019-04-27T01:17:23.246Z,0.00
2019-04-27T01:18:23.221Z,0.00
2019-04-27T01:19:23.224Z,0.00
2019-04-27T01:20:23.208Z,0.00
2019-04-27T01:21:23.194Z,0.00
2019-04-27T01:22:23.215Z,0.00
2019-04-27T01:23:23.172Z,0.00
2019-04-27T01:24:23.161Z,0.00
2019-04-27T01:25:23.162Z,0.00
2019-04-27T01:26:23.132Z,0.00
2019-04-27T01:27:23.121Z,0.00
2019-04-27T01:28:23.142Z,0.00
2019-04-27T01:29:23.110Z,0.00
2019-04-27T01:30:23.091Z,0.00
2019-04-27T01:31:23.093Z,0.00
2019-04-27T01:32:23.075Z,0.00
2019-04-27T01:33:23.091Z,0.00
2019-04-27T01:34:23.052Z,0.00
2019-04-27T01:35:23.052Z,0.00
2019-04-27T01:36:23.034Z,0.00
2019-04-27T01:37:23.029Z,0.00
2019-04-27T01:38:23.023Z,0.00
2019-04-27T01:39:23.012Z,0.00
2019-04-27T01:40:22.991Z,0.00
2019-04-27T01:41:22.983Z,0.00
2019-04-27T01:42:22.971Z,0.00
2019-04-27T01:43:22.965Z,0.00
2019-04-27T01:44:22.972Z,0.00
2019-04-27T01:45:22.940Z,0.00
2019-04-27T01:46:22.931Z,0.00
2019-04-27T01:47:22.923Z,0.00
2019-04-27T01:48:25.807Z,0.00
2019-04-27T01:49:22.914Z,0.00
2019-04-27T01:50:22.893Z,0.00
2019-04-27T01:51:22.864Z,0.00
2019-04-27T01:52:22.861Z,0.00
2019-04-27T01:53:22.851Z,0.00
2019-04-27T01:54:22.859Z,0.00
2019-04-27T01:55:22.838Z,0.00
2019-04-27T01:56:22.821Z,0.00
2019-04-27T01:57:22.804Z,0.00
2019-04-27T01:58:22.815Z,0.00
2019-04-27T01:59:22.780Z,0.00
2019-04-27T02:00:22.801Z,0.00
2019-04-27T02:01:22.791Z,0.00
2019-04-27T02:02:22.752Z,0.00
2019-04-27T02:03:22.813Z,0.00
2019-04-27T02:04:22.733Z,0.00
2019-04-27T02:05:22.719Z,0.00
2019-04-27T02:06:22.719Z,0.00
2019-04-27T02:07:22.707Z,0.00
2019-04-27T02:08:22.691Z,0.00
2019-04-27T02:09:22.681Z,0.00
2019-04-27T02:10:22.692Z,0.00
2019-04-27T02:11:22.649Z,0.00
2019-04-27T02:12:22.643Z,0.00
2019-04-27T02:13:22.631Z,0.00
2019-04-27T02:14:22.653Z,0.00
2019-04-27T02:15:22.621Z,0.00
2019-04-27T02:16:22.632Z,0.00
2019-04-27T02:17:22.597Z,0.00
2019-04-27T02:18:34.628Z,0.00
2019-04-27T02:19:23.559Z,0.00
2019-04-27T02:20:22.559Z,0.00
2019-04-27T02:21:22.558Z,0.00
2019-04-27T02:22:22.561Z,0.00
2019-04-27T02:23:22.520Z,0.00
2019-04-27T02:24:22.528Z,0.00
2019-04-27T02:25:22.500Z,0.00
2019-04-27T02:26:22.510Z,0.00
2019-04-27T02:27:22.490Z,0.00
2019-04-27T02:28:22.471Z,0.00
2019-04-27T02:29:22.465Z,0.00
2019-04-27T02:30:22.453Z,0.00
2019-04-27T02:31:22.437Z,0.00
2019-04-27T02:32:22.449Z,0.00
2019-04-27T02:33:22.417Z,0.00
2019-04-27T02:34:22.407Z,0.00
2019-04-27T02:35:22.411Z,0.00
2019-04-27T02:36:22.388Z,0.00
2019-04-27T02:37:22.390Z,0.00
2019-04-27T02:38:22.395Z,0.00
2019-04-27T02:39:22.360Z,0.00
2019-04-27T02:40:22.348Z,0.00
2019-04-27T02:41:22.342Z,0.00
2019-04-27T02:42:22.351Z,0.00
2019-04-27T02:43:22.317Z,0.00
2019-04-27T02:44:22.327Z,0.00
2019-04-27T02:45:22.362Z,0.00
2019-04-27T02:46:22.277Z,0.00
2019-04-27T02:47:22.301Z,0.00
2019-04-27T02:48:22.269Z,0.00
2019-04-27T02:49:22.269Z,0.00
2019-04-27T02:50:22.239Z,0.00
2019-04-27T02:51:22.217Z,0.00
2019-04-27T02:52:22.208Z,0.00
2019-04-27T02:53:22.201Z,0.00
2019-04-27T02:54:22.215Z,0.00
2019-04-27T02:55:22.176Z,0.00
2019-04-27T02:56:22.177Z,0.00
2019-04-27T02:57:22.159Z,0.00
2019-04-27T02:58:22.147Z,0.00
2019-04-27T02:59:22.179Z,0.00
2019-04-27T03:00:22.127Z,0.00
2019-04-27T03:01:22.128Z,0.00
2019-04-27T03:02:22.109Z,0.00
2019-04-27T03:03:22.088Z,0.00
2019-04-27T03:04:22.107Z,0.00
2019-04-27T03:05:22.078Z,0.00
2019-04-27T03:06:22.060Z,0.00
2019-04-27T03:07:22.061Z,0.00
2019-04-27T03:08:22.039Z,0.00
2019-04-27T03:09:22.028Z,0.00
2019-04-27T03:10:22.027Z,0.00
2019-04-27T03:11:23.483Z,0.00
2019-04-27T03:12:21.997Z,0.00
2019-04-27T03:13:22.008Z,0.00
2019-04-27T03:14:32.638Z,0.00
2019-04-27T03:15:23.422Z,0.00
2019-04-27T03:16:21.953Z,0.00
2019-04-27T03:17:22.838Z,0.00
2019-04-27T03:18:21.924Z,0.00
2019-04-27T03:19:22.136Z,0.00
2019-04-27T03:20:21.907Z,0.00
2019-04-27T03:21:21.907Z,0.00
2019-04-27T03:22:21.899Z,0.00
2019-04-27T03:23:21.866Z,0.00
2019-04-27T03:24:23.001Z,0.00
2019-04-27T03:25:21.875Z,0.00
2019-04-27T03:26:21.853Z,0.00
2019-04-27T03:27:21.830Z,0.00
2019-04-27T03:28:21.964Z,0.00
2019-04-27T03:29:22.967Z,0.00
2019-04-27T03:30:23.396Z,0.00
2019-04-27T03:31:22.014Z,0.00
2019-04-27T03:32:23.182Z,0.00
2019-04-27T03:33:22.710Z,0.00
2019-04-27T03:34:22.557Z,0.00
2019-04-27T03:35:23.081Z,0.00
2019-04-27T03:36:21.921Z,0.00
2019-04-27T03:37:21.726Z,0.00
2019-04-27T03:38:21.713Z,0.00
2019-04-27T03:39:21.719Z,0.00
2019-04-27T03:40:21.695Z,0.00
2019-04-27T03:41:21.702Z,0.00
2019-04-27T03:42:21.675Z,0.00
2019-04-27T03:43:21.677Z,0.00
2019-04-27T03:44:21.645Z,0.00
2019-04-27T03:45:21.643Z,0.00
2019-04-27T03:46:21.670Z,0.00
2019-04-27T03:47:21.604Z,0.00
2019-04-27T03:48:21.621Z,0.00
2019-04-27T03:49:35.131Z,0.00
2019-04-27T03:50:22.593Z,0.00
2019-04-27T03:51:21.584Z,0.00
2019-04-27T03:52:21.624Z,0.00
2019-04-27T03:53:23.214Z,0.00
2019-04-27T03:54:22.219Z,0.00
2019-04-27T03:55:22.183Z,0.00
2019-04-27T03:56:21.857Z,0.00
2019-04-27T03:57:21.999Z,0.00
2019-04-27T03:58:21.879Z,0.00
2019-04-27T03:59:21.686Z,0.00
2019-04-27T04:00:21.550Z,0.01
2019-04-27T04:01:21.472Z,0.01
2019-04-27T04:02:21.529Z,0.01
2019-04-27T04:03:21.560Z,0.01
2019-04-27T04:04:21.584Z,0.01
2019-04-27T04:05:21.594Z,0.01
2019-04-27T04:06:21.467Z,0.03
2019-04-27T04:07:21.483Z,0.03
2019-04-27T04:08:21.433Z,0.03
2019-04-27T04:09:21.512Z,0.03
2019-04-27T04:10:21.466Z,0.04
2019-04-27T04:11:21.524Z,0.04
2019-04-27T04:12:21.539Z,0.04
2019-04-27T04:13:22.643Z,0.04
2019-04-27T04:14:21.368Z,0.05
2019-04-27T04:15:21.383Z,0.05
2019-04-27T04:16:21.407Z,0.05
2019-04-27T04:17:21.440Z,0.06
2019-04-27T04:18:21.349Z,0.06
2019-04-27T04:19:21.342Z,0.06
2019-04-27T04:20:21.406Z,0.08
2019-04-27T04:21:21.272Z,0.08
2019-04-27T04:22:21.317Z,0.09
2019-04-27T04:23:21.306Z,0.09
2019-04-27T04:24:21.286Z,0.10
2019-04-27T04:25:21.282Z,0.11
2019-04-27T04:26:21.250Z,0.11
2019-04-27T04:27:21.219Z,0.13
2019-04-27T04:28:21.258Z,0.13
2019-04-27T04:29:21.272Z,0.14
2019-04-27T04:30:21.231Z,0.15
2019-04-27T04:31:21.185Z,0.15
2019-04-27T04:32:21.167Z,0.16
2019-04-27T04:33:21.323Z,0.18
2019-04-27T04:34:21.214Z,0.18
2019-04-27T04:35:21.592Z,0.19
2019-04-27T04:36:21.131Z,0.19
2019-04-27T04:37:21.223Z,0.20
2019-04-27T04:38:21.146Z,0.22
2019-04-27T04:39:21.096Z,0.23
2019-04-27T04:40:23.082Z,0.24
2019-04-27T04:41:21.026Z,0.25
2019-04-27T04:42:21.053Z,0.27
2019-04-27T04:43:21.120Z,0.28
2019-04-27T04:44:21.143Z,0.29
2019-04-27T04:45:21.058Z,0.32
2019-04-27T04:46:23.017Z,0.32
2019-04-27T04:47:21.030Z,0.33
2019-04-27T04:48:21.107Z,0.34
2019-04-27T04:49:21.006Z,0.35
2019-04-27T04:50:22.806Z,0.37
2019-04-27T04:51:21.028Z,0.37
2019-04-27T04:52:20.919Z,0.39
2019-04-27T04:53:20.980Z,0.39
2019-04-27T04:54:24.420Z,0.41
2019-04-27T04:55:21.123Z,0.42
2019-04-27T04:56:21.007Z,0.43
2019-04-27T04:57:21.853Z,0.43
2019-04-27T04:58:21.202Z,0.43
2019-04-27T04:59:20.987Z,0.44
2019-04-27T05:00:20.919Z,0.46
2019-04-27T05:01:20.889Z,0.47
2019-04-27T05:02:21.030Z,0.48
2019-04-27T05:03:21.856Z,0.49
2019-04-27T05:04:20.950Z,0.51
2019-04-27T05:05:21.346Z,0.52
2019-04-27T05:06:20.816Z,0.54
2019-04-27T05:07:20.787Z,0.56
2019-04-27T05:08:20.772Z,0.56
2019-04-27T05:09:20.814Z,0.56
2019-04-27T05:10:20.733Z,0.56
2019-04-27T05:11:20.723Z,0.56
2019-04-27T05:12:20.868Z,0.56
2019-04-27T05:13:20.830Z,0.56
2019-04-27T05:14:20.720Z,0.56
2019-04-27T05:15:20.864Z,0.56
2019-04-27T05:16:20.670Z,0.57
2019-04-27T05:17:20.663Z,0.58
2019-04-27T05:18:20.715Z,0.58
2019-04-27T05:19:20.664Z,0.59
2019-04-27T05:20:24.469Z,0.61
2019-04-27T05:21:21.625Z,0.62
2019-04-27T05:22:20.652Z,0.63
2019-04-27T05:23:20.666Z,0.65
2019-04-27T05:24:20.656Z,0.65
2019-04-27T05:25:20.702Z,0.67
2019-04-27T05:26:20.793Z,0.68
2019-04-27T05:27:20.543Z,0.68
2019-04-27T05:28:20.546Z,0.70
2019-04-27T05:29:20.541Z,0.70
2019-04-27T05:30:20.502Z,0.68
2019-04-27T05:31:20.525Z,0.70
2019-04-27T05:32:20.764Z,0.71
2019-04-27T05:33:20.514Z,0.67
2019-04-27T05:34:20.484Z,0.67
2019-04-27T05:35:20.446Z,0.66
2019-04-27T05:36:20.436Z,0.67
2019-04-27T05:37:27.539Z,0.67
2019-04-27T05:38:21.488Z,0.67
2019-04-27T05:39:24.826Z,0.68
2019-04-27T05:40:22.140Z,0.68
2019-04-27T05:41:20.579Z,0.70
2019-04-27T05:42:20.474Z,0.70
2019-04-27T05:43:20.471Z,0.71
2019-04-27T05:44:20.845Z,0.72
2019-04-27T05:45:22.777Z,0.73
2019-04-27T05:46:20.357Z,0.73
2019-04-27T05:47:20.426Z,0.76
2019-04-27T05:48:27.382Z,0.77
2019-04-27T05:49:21.328Z,0.78
2019-04-27T05:50:22.018Z,0.80
2019-04-27T05:51:20.344Z,0.82
2019-04-27T05:52:20.357Z,0.84
2019-04-27T05:53:20.330Z,0.85
2019-04-27T05:54:20.282Z,0.86
2019-04-27T05:55:20.242Z,0.87
2019-04-27T05:56:21.655Z,0.89
2019-04-27T05:57:20.307Z,0.90
2019-04-27T05:58:20.291Z,0.91
2019-04-27T05:59:20.270Z,0.91
2019-04-27T06:00:20.294Z,0.91
2019-04-27T06:01:20.254Z,0.92
2019-04-27T06:02:20.339Z,0.92
2019-04-27T06:03:21.040Z,0.92
2019-04-27T06:04:20.120Z,0.94
2019-04-27T06:05:22.631Z,0.96
2019-04-27T06:06:20.108Z,0.96
2019-04-27T06:07:20.109Z,0.96
2019-04-27T06:08:21.095Z,0.97
2019-04-27T06:09:20.065Z,0.96
2019-04-27T06:10:20.061Z,0.95
2019-04-27T06:11:20.050Z,0.92
2019-04-27T06:12:20.048Z,0.90
2019-04-27T06:13:20.060Z,0.87
2019-04-27T06:14:20.020Z,0.85
2019-04-27T06:15:20.036Z,0.81
2019-04-27T06:16:19.989Z,0.77
2019-04-27T06:17:20.000Z,0.78
2019-04-27T06:18:20.796Z,0.76
2019-04-27T06:19:20.024Z,0.75
2019-04-27T06:20:19.962Z,0.72
2019-04-27T06:21:19.927Z,0.70
2019-04-27T06:22:19.933Z,0.68
2019-04-27T06:23:20.971Z,0.68
2019-04-27T06:24:19.946Z,0.70
2019-04-27T06:25:21.571Z,0.71
2019-04-27T06:26:20.253Z,0.71
2019-04-27T06:27:21.095Z,0.70
2019-04-27T06:28:19.857Z,0.66
2019-04-27T06:29:19.877Z,0.62
2019-04-27T06:30:19.840Z,0.57
2019-04-27T06:31:19.841Z,0.52
2019-04-27T06:32:19.822Z,0.49
2019-04-27T06:33:29.629Z,0.49
2019-04-27T06:34:20.841Z,0.49
2019-04-27T06:35:19.794Z,0.49
2019-04-27T06:36:20.035Z,0.48
2019-04-27T06:37:21.588Z,0.51
2019-04-27T06:38:19.748Z,0.53
2019-04-27T06:39:20.600Z,0.56
2019-04-27T06:40:19.718Z,0.58
2019-04-27T06:41:19.718Z,0.61
2019-04-27T06:42:20.790Z,0.62
2019-04-27T06:43:19.698Z,0.63
2019-04-27T06:44:19.768Z,0.66
2019-04-27T06:45:19.773Z,0.67
2019-04-27T06:46:20.020Z,0.67
2019-04-27T06:47:19.655Z,0.67
2019-04-27T06:48:19.635Z,0.70
2019-04-27T06:49:19.644Z,0.76
2019-04-27T06:50:19.669Z,0.84
2019-04-27T06:51:19.674Z,0.85
2019-04-27T06:52:19.657Z,0.84
2019-04-27T06:53:19.588Z,0.81
2019-04-27T06:54:21.380Z,0.73
2019-04-27T06:55:19.567Z,0.67
2019-04-27T06:56:19.559Z,0.61
2019-04-27T06:57:19.547Z,0.59
2019-04-27T06:58:20.150Z,0.62
2019-04-27T06:59:19.537Z,0.68
2019-04-27T07:00:19.504Z,0.75
2019-04-27T07:01:19.506Z,0.77
2019-04-27T07:02:19.494Z,0.75
2019-04-27T07:03:19.498Z,0.67
2019-04-27T07:04:19.688Z,0.59
2019-04-27T07:05:20.447Z,0.51
2019-04-27T07:06:19.461Z,0.44
2019-04-27T07:07:19.594Z,0.42
2019-04-27T07:08:19.415Z,0.39
2019-04-27T07:09:19.621Z,0.38
2019-04-27T07:10:19.448Z,0.39
2019-04-27T07:11:19.800Z,0.39
2019-04-27T07:12:19.396Z,0.39
2019-04-27T07:13:19.661Z,0.39
2019-04-27T07:14:19.815Z,0.39
2019-04-27T07:15:20.495Z,0.39
2019-04-27T07:16:19.713Z,0.39
2019-04-27T07:17:19.363Z,0.39
2019-04-27T07:18:19.312Z,0.41
2019-04-27T07:19:19.314Z,0.43
2019-04-27T07:20:19.342Z,0.47
2019-04-27T07:21:24.615Z,0.51
2019-04-27T07:22:20.276Z,0.54
2019-04-27T07:23:20.938Z,0.59
2019-04-27T07:24:19.749Z,0.62
2019-04-27T07:25:19.245Z,0.65
2019-04-27T07:26:21.236Z,0.67
2019-04-27T07:27:21.243Z,0.68
2019-04-27T07:28:19.244Z,0.70
2019-04-27T07:29:19.603Z,0.70
2019-04-27T07:30:19.245Z,0.71
2019-04-27T07:31:19.353Z,0.76
2019-04-27T07:32:19.378Z,0.84
2019-04-27T07:33:19.174Z,0.85
2019-04-27T07:34:19.200Z,0.84
2019-04-27T07:35:19.693Z,0.81
2019-04-27T07:36:19.135Z,0.81
2019-04-27T07:37:19.547Z,0.76
2019-04-27T07:38:19.267Z,0.73
2019-04-27T07:39:19.398Z,0.73
2019-04-27T07:40:19.065Z,0.75
2019-04-27T07:41:19.572Z,0.72
2019-04-27T07:42:20.771Z,0.70
2019-04-27T07:43:21.120Z,0.65
2019-04-27T07:44:20.397Z,0.59
2019-04-27T07:45:19.533Z,0.56
2019-04-27T07:46:19.108Z,0.54
2019-04-27T07:47:19.542Z,0.57
2019-04-27T07:48:19.007Z,0.61
2019-04-27T07:49:19.081Z,0.63
2019-04-27T07:50:19.397Z,0.66
2019-04-27T07:51:31.175Z,0.70
2019-04-27T07:52:20.511Z,0.70
2019-04-27T07:53:19.382Z,0.67
2019-04-27T07:54:19.009Z,0.63
2019-04-27T07:55:18.952Z,0.61
2019-04-27T07:56:19.142Z,0.57
2019-04-27T07:57:19.782Z,0.58
2019-04-27T07:58:21.903Z,0.54
2019-04-27T07:59:18.948Z,0.56
2019-04-27T08:00:19.107Z,0.58
2019-04-27T08:01:19.255Z,0.65
2019-04-27T08:02:19.158Z,0.63
2019-04-27T08:03:19.545Z,0.75
2019-04-27T08:04:20.166Z,0.94
2019-04-27T08:05:19.228Z,1.13
2019-04-27T08:06:19.014Z,1.19
2019-04-27T08:07:19.692Z,1.30
2019-04-27T08:08:19.058Z,1.44
2019-04-27T08:09:19.139Z,1.39
2019-04-27T08:10:20.430Z,1.23
2019-04-27T08:11:19.328Z,1.00
2019-04-27T08:12:20.742Z,0.90
2019-04-27T08:13:19.470Z,0.84
2019-04-27T08:14:18.734Z,0.77
2019-04-27T08:15:18.990Z,0.70
2019-04-27T08:16:20.634Z,0.61
2019-04-27T08:17:19.173Z,0.51
2019-04-27T08:18:19.028Z,0.44
2019-04-27T08:19:19.671Z,0.47
2019-04-27T08:20:20.850Z,0.67
2019-04-27T08:21:18.923Z,0.71
2019-04-27T08:22:19.435Z,0.56
2019-04-27T08:23:19.523Z,0.44
2019-04-27T08:24:19.429Z,0.39
2019-04-27T08:25:19.014Z,0.37
2019-04-27T08:26:18.760Z,0.42
2019-04-27T08:27:19.438Z,0.46
2019-04-27T08:28:18.825Z,0.47
2019-04-27T08:29:18.577Z,0.59
2019-04-27T08:30:19.445Z,0.90
2019-04-27T08:31:18.757Z,1.30
2019-04-27T08:32:19.571Z,1.54
2019-04-27T08:33:19.087Z,1.63
2019-04-27T08:34:18.513Z,1.51
2019-04-27T08:35:19.484Z,1.16
2019-04-27T08:36:19.042Z,1.09
2019-04-27T08:37:18.795Z,1.11
2019-04-27T08:38:19.042Z,1.05
2019-04-27T08:39:18.689Z,0.72
2019-04-27T08:40:19.259Z,0.66
2019-04-27T08:41:21.040Z,0.81
2019-04-27T08:42:19.443Z,0.96
2019-04-27T08:43:19.154Z,1.11
2019-04-27T08:44:19.424Z,1.19
2019-04-27T08:45:19.324Z,1.20
2019-04-27T08:46:18.706Z,1.18
2019-04-27T08:47:19.469Z,1.11
2019-04-27T08:48:33.408Z,1.01
2019-04-27T08:49:19.318Z,0.94
2019-04-27T08:50:19.055Z,0.90
2019-04-27T08:51:19.671Z,0.90
2019-04-27T08:52:19.415Z,0.91
2019-04-27T08:53:18.671Z,0.95
2019-04-27T08:54:19.255Z,1.00
2019-04-27T08:55:19.623Z,1.06
2019-04-27T08:56:19.391Z,1.19
2019-04-27T08:57:18.809Z,1.37
2019-04-27T08:58:19.683Z,1.54
2019-04-27T08:59:19.431Z,1.67
2019-04-27T09:00:19.319Z,1.75
2019-04-27T09:01:18.347Z,1.70
2019-04-27T09:02:19.646Z,1.59
2019-04-27T09:03:19.360Z,1.62
2019-04-27T09:04:20.078Z,1.66
2019-04-27T09:05:19.287Z,1.70
2019-04-27T09:06:19.029Z,1.73
2019-04-27T09:07:19.706Z,1.77
2019-04-27T09:08:18.955Z,1.85
2019-04-27T09:09:19.259Z,1.99
2019-04-27T09:10:18.766Z,2.11
2019-04-27T09:11:20.424Z,2.13
2019-04-27T09:12:19.619Z,2.15
2019-04-27T09:13:19.467Z,2.16
2019-04-27T09:14:19.297Z,2.19
2019-04-27T09:15:19.259Z,2.20
2019-04-27T09:16:18.636Z,2.21
2019-04-27T09:17:19.318Z,2.10
2019-04-27T09:18:19.190Z,1.87
2019-04-27T09:19:18.842Z,1.84
2019-04-27T09:20:18.692Z,1.78
2019-04-27T09:21:19.160Z,1.87
2019-04-27T09:22:19.261Z,1.78
2019-04-27T09:23:18.825Z,1.80
2019-04-27T09:24:18.815Z,1.65
2019-04-27T09:25:19.332Z,1.76
2019-04-27T09:26:18.625Z,1.75
2019-04-27T09:27:19.745Z,1.95
2019-04-27T09:28:17.902Z,1.86
2019-04-27T09:29:17.886Z,1.94
2019-04-27T09:30:19.114Z,1.94
2019-04-27T09:31:19.502Z,1.94
2019-04-27T09:32:19.105Z,1.75
2019-04-27T09:33:17.841Z,1.96
2019-04-27T09:34:18.920Z,1.65
2019-04-27T09:35:17.818Z,1.32
2019-04-27T09:36:17.837Z,1.67
2019-04-27T09:37:17.809Z,1.46
2019-04-27T09:38:18.545Z,1.59
2019-04-27T09:39:17.781Z,1.65
2019-04-27T09:40:17.765Z,1.75
2019-04-27T09:41:17.771Z,1.92
2019-04-27T09:42:17.743Z,2.01
2019-04-27T09:43:17.739Z,1.95
2019-04-27T09:44:17.710Z,1.75
2019-04-27T09:45:17.707Z,1.51
2019-04-27T09:46:17.717Z,1.52
2019-04-27T09:47:17.718Z,1.40
2019-04-27T09:48:17.716Z,1.52
2019-04-27T09:49:17.668Z,1.37
2019-04-27T09:50:17.657Z,1.05
2019-04-27T09:51:17.669Z,0.95
2019-04-27T09:52:24.309Z,1.09
2019-04-27T09:53:18.616Z,1.30
2019-04-27T09:54:17.607Z,1.34
2019-04-27T09:55:17.597Z,1.19
2019-04-27T09:56:17.615Z,1.24
2019-04-27T09:57:17.604Z,1.29
2019-04-27T09:58:18.590Z,1.39
2019-04-27T09:59:17.556Z,1.46
2019-04-27T10:00:17.555Z,1.59
2019-04-27T10:01:18.110Z,1.75
2019-04-27T10:02:17.527Z,1.63
2019-04-27T10:03:17.521Z,1.58
2019-04-27T10:04:17.598Z,1.66
2019-04-27T10:05:17.488Z,1.70
2019-04-27T10:06:17.497Z,1.77
2019-04-27T10:07:17.465Z,1.75
2019-04-27T10:08:17.465Z,1.76
2019-04-27T10:09:17.449Z,1.85
2019-04-27T10:10:17.447Z,2.00
2019-04-27T10:11:17.468Z,2.14
2019-04-27T10:12:17.407Z,2.15
2019-04-27T10:13:17.399Z,1.96
2019-04-27T10:14:17.423Z,1.87
2019-04-27T10:15:17.398Z,1.80
2019-04-27T10:16:17.388Z,1.72
2019-04-27T10:17:17.358Z,1.81
2019-04-27T10:18:17.364Z,2.00
2019-04-27T10:19:28.241Z,2.11
2019-04-27T10:20:18.330Z,2.14
2019-04-27T10:21:17.348Z,2.23
2019-04-27T10:22:17.364Z,2.39
2019-04-27T10:23:17.308Z,2.59
2019-04-27T10:24:17.277Z,2.77
2019-04-27T10:25:17.281Z,2.91
2019-04-27T10:26:17.257Z,3.01
2019-04-27T10:27:17.263Z,3.20
2019-04-27T10:28:17.248Z,3.89
2019-04-27T10:29:17.247Z,4.27
2019-04-27T10:30:17.217Z,3.73
2019-04-27T10:31:17.213Z,3.39
2019-04-27T10:32:17.228Z,3.08
2019-04-27T10:33:17.197Z,3.08
2019-04-27T10:34:17.176Z,2.56
2019-04-27T10:35:17.169Z,2.44
2019-04-27T10:36:17.166Z,2.16
2019-04-27T10:37:17.139Z,1.95
2019-04-27T10:38:17.262Z,2.08
2019-04-27T10:39:17.140Z,1.75
2019-04-27T10:40:17.140Z,1.95
2019-04-27T10:41:17.099Z,1.70
2019-04-27T10:42:17.097Z,1.49
2019-04-27T10:43:17.098Z,1.18
2019-04-27T10:44:17.056Z,0.94
2019-04-27T10:45:17.060Z,0.94
2019-04-27T10:46:17.041Z,1.05
2019-04-27T10:47:17.040Z,1.11
2019-04-27T10:48:17.960Z,1.22
2019-04-27T10:49:17.018Z,1.28
2019-04-27T10:50:16.996Z,1.37
2019-04-27T10:51:16.982Z,1.23
2019-04-27T10:52:17.008Z,1.08
2019-04-27T10:53:17.056Z,0.89
2019-04-27T10:54:16.958Z,0.44
2019-04-27T10:55:16.950Z,0.53
2019-04-27T10:56:16.937Z,0.67
2019-04-27T10:57:16.987Z,0.84
2019-04-27T10:58:16.915Z,1.04
2019-04-27T10:59:16.907Z,1.27
2019-04-27T11:00:16.952Z,1.43
2019-04-27T11:01:16.880Z,1.37
2019-04-27T11:02:16.872Z,1.27
2019-04-27T11:03:16.889Z,1.23
2019-04-27T11:04:16.883Z,1.25
2019-04-27T11:05:16.859Z,1.29
2019-04-27T11:06:16.835Z,1.39
2019-04-27T11:07:16.858Z,1.46
2019-04-27T11:08:16.813Z,1.39
2019-04-27T11:09:16.818Z,1.35
2019-04-27T11:10:16.822Z,1.39
2019-04-27T11:11:16.779Z,1.46
2019-04-27T11:12:16.791Z,1.53
2019-04-27T11:13:16.816Z,1.66
2019-04-27T11:14:16.740Z,1.85
2019-04-27T11:15:16.740Z,2.06
2019-04-27T11:16:16.717Z,2.38
2019-04-27T11:17:16.718Z,2.62
2019-04-27T11:18:16.814Z,2.82
2019-04-27T11:19:17.032Z,2.90
2019-04-27T11:20:16.699Z,2.73
2019-04-27T11:21:16.686Z,2.42
2019-04-27T11:22:16.654Z,2.30
2019-04-27T11:23:16.656Z,2.28
2019-04-27T11:24:16.653Z,1.89
2019-04-27T11:25:16.644Z,1.54
2019-04-27T11:26:16.617Z,1.38
2019-04-27T11:27:16.602Z,1.33
2019-04-27T11:28:16.607Z,1.34
2019-04-27T11:29:16.576Z,1.42
2019-04-27T11:30:16.554Z,1.40
2019-04-27T11:31:17.264Z,1.32
2019-04-27T11:32:16.540Z,1.24
2019-04-27T11:33:16.661Z,1.25
2019-04-27T11:34:16.550Z,1.34
2019-04-27T11:35:16.505Z,1.48
2019-04-27T11:36:17.079Z,1.62
2019-04-27T11:37:16.566Z,1.76
2019-04-27T11:38:16.841Z,1.87
2019-04-27T11:39:19.645Z,1.92
2019-04-27T11:40:16.467Z,1.90
2019-04-27T11:41:16.434Z,1.78
2019-04-27T11:42:16.454Z,1.73
2019-04-27T11:43:16.456Z,1.62
2019-04-27T11:44:17.092Z,1.86
2019-04-27T11:45:16.422Z,2.15
2019-04-27T11:46:16.461Z,2.62
2019-04-27T11:47:16.389Z,3.14
2019-04-27T11:48:16.405Z,2.91
2019-04-27T11:49:16.348Z,2.65
2019-04-27T11:50:16.654Z,2.62
2019-04-27T11:51:17.415Z,2.48
2019-04-27T11:52:16.343Z,2.51
2019-04-27T11:53:22.726Z,2.53
2019-04-27T11:54:17.292Z,2.42
2019-04-27T11:55:16.292Z,2.37
2019-04-27T11:56:17.773Z,2.53
2019-04-27T11:57:16.277Z,2.63
2019-04-27T11:58:16.528Z,2.59
2019-04-27T11:59:16.277Z,2.49
2019-04-27T12:00:16.588Z,2.43
2019-04-27T12:01:16.215Z,2.28
2019-04-27T12:02:17.619Z,2.23
2019-04-27T12:03:16.681Z,2.11
2019-04-27T12:04:16.226Z,1.97
2019-04-27T12:05:16.197Z,1.96
2019-04-27T12:06:16.200Z,2.05
2019-04-27T12:07:16.180Z,1.86
2019-04-27T12:08:16.253Z,1.54
2019-04-27T12:09:16.167Z,1.33
2019-04-27T12:10:16.132Z,1.30
2019-04-27T12:11:16.120Z,1.10
2019-04-27T12:12:21.540Z,1.09
2019-04-27T12:13:17.101Z,1.28
2019-04-27T12:14:16.095Z,1.44
2019-04-27T12:15:16.261Z,1.29
2019-04-27T12:16:17.655Z,1.05
2019-04-27T12:17:16.525Z,0.86
2019-04-27T12:18:16.055Z,0.87
2019-04-27T12:19:16.403Z,0.97
2019-04-27T12:20:17.912Z,1.18
2019-04-27T12:21:16.004Z,1.44
2019-04-27T12:22:16.453Z,1.52
2019-04-27T12:23:16.489Z,1.40
2019-04-27T12:24:16.174Z,1.40
2019-04-27T12:25:15.952Z,1.47
2019-04-27T12:26:15.968Z,1.51
2019-04-27T12:27:16.001Z,1.54
2019-04-27T12:28:15.935Z,1.54
2019-04-27T12:29:16.228Z,1.47
2019-04-27T12:30:16.271Z,1.44
2019-04-27T12:31:16.369Z,1.38
2019-04-27T12:32:15.879Z,1.27
2019-04-27T12:33:15.902Z,1.18
2019-04-27T12:34:16.317Z,1.08
2019-04-27T12:35:16.636Z,1.00
2019-04-27T12:36:15.855Z,0.94
2019-04-27T12:37:15.849Z,0.92
2019-04-27T12:38:15.824Z,0.89
2019-04-27T12:39:15.812Z,0.82
2019-04-27T12:40:16.643Z,0.82
2019-04-27T12:41:15.834Z,0.89
2019-04-27T12:42:16.086Z,0.94
2019-04-27T12:43:15.796Z,0.92
2019-04-27T12:44:16.112Z,0.90
2019-04-27T12:45:17.978Z,0.92
2019-04-27T12:46:16.171Z,0.99
2019-04-27T12:47:16.333Z,1.06
2019-04-27T12:48:15.783Z,1.06
2019-04-27T12:49:16.161Z,1.03
2019-04-27T12:50:17.255Z,0.96
2019-04-27T12:51:15.728Z,0.85
2019-04-27T12:52:15.963Z,0.78
2019-04-27T12:53:15.650Z,0.81
2019-04-27T12:54:16.132Z,0.94
2019-04-27T12:55:17.043Z,1.13
2019-04-27T12:56:16.662Z,1.30
2019-04-27T12:57:15.923Z,1.49
2019-04-27T12:58:16.419Z,1.76
2019-04-27T12:59:15.590Z,2.08
2019-04-27T13:00:16.516Z,2.43
2019-04-27T13:01:15.835Z,2.72
2019-04-27T13:02:15.588Z,2.85
2019-04-27T13:03:16.063Z,2.77
2019-04-27T13:04:15.535Z,2.61
2019-04-27T13:05:15.833Z,2.40
2019-04-27T13:06:15.558Z,2.21
2019-04-27T13:07:15.990Z,2.01
2019-04-27T13:08:15.491Z,1.82
2019-04-27T13:09:17.276Z,1.65
2019-04-27T13:10:15.905Z,1.53
2019-04-27T13:11:16.261Z,1.44
2019-04-27T13:12:15.468Z,1.37
2019-04-27T13:13:16.410Z,1.38
2019-04-27T13:14:16.323Z,1.47
2019-04-27T13:15:15.437Z,1.58
2019-04-27T13:16:16.641Z,1.66
2019-04-27T13:17:16.428Z,1.75
2019-04-27T13:18:16.679Z,1.82